createdAt,value
2024-02-21T00:00:08.724Z,100158.34
2024-02-21T00:02:37.408Z,100155.72
2024-02-21T00:05:07.106Z,100138.28
2024-02-21T00:07:36.080Z,100137.41
2024-02-21T00:10:05.462Z,100124.34
2024-02-21T00:12:36.233Z,100115.63
2024-02-21T00:15:05.387Z,100105.25
2024-02-21T00:17:34.161Z,100098.28
2024-02-21T00:20:04.620Z,100099.22
2024-02-21T00:22:34.890Z,100108.84
2024-02-21T00:25:03.766Z,100105.41
2024-02-21T00:27:32.484Z,100107.28
2024-02-21T00:30:02.800Z,100099.44
2024-02-21T00:32:31.758Z,100097.72
2024-02-21T00:35:00.597Z,100098.63
2024-02-21T00:37:29.581Z,100093.44
2024-02-21T00:39:58.374Z,100091.81
2024-02-21T00:42:27.204Z,100091.91
2024-02-21T00:44:55.881Z,100082.41
2024-02-21T00:47:26.323Z,100086.81
2024-02-21T00:49:55.466Z,100078.13
2024-02-21T00:52:24.357Z,100071.19
2024-02-21T00:54:54.824Z,100067.75
2024-02-21T00:57:25.077Z,100061.66
2024-02-21T00:59:53.823Z,100057.38
2024-02-21T01:02:22.713Z,100063.47
2024-02-21T01:04:53.084Z,100055.63
2024-02-21T01:07:21.905Z,100055.63
2024-02-21T01:09:52.296Z,100040.78
2024-02-21T01:12:21.151Z,100033.78
2024-02-21T01:14:50.768Z,100027.69
2024-02-21T01:17:19.485Z,100018.91
2024-02-21T01:19:49.359Z,100008.44
2024-02-21T01:22:19.562Z,100011.97
2024-02-21T01:24:48.283Z,100005.00
2024-02-21T01:27:17.004Z,99986.69
2024-02-21T01:29:47.802Z,99983.19
2024-02-21T01:32:16.525Z,99975.25
2024-02-21T01:34:45.516Z,99968.31
2024-02-21T01:37:14.305Z,99963.06
2024-02-21T01:39:44.493Z,99962.16
2024-02-21T01:42:13.322Z,99956.97
2024-02-21T01:44:42.834Z,99945.63
2024-02-21T01:47:14.742Z,99938.63
2024-02-21T01:49:43.697Z,99947.34
2024-02-21T01:52:16.316Z,99931.63
2024-02-21T01:54:47.358Z,99929.00
2024-02-21T01:57:16.293Z,99927.22
2024-02-21T01:59:45.650Z,99922.84
2024-02-21T02:02:14.848Z,99912.34
2024-02-21T02:04:43.651Z,99909.69
2024-02-21T02:07:12.703Z,99896.53
2024-02-21T02:09:41.732Z,99895.66
2024-02-21T02:12:12.210Z,99883.41
2024-02-21T02:14:40.947Z,99891.19
2024-02-21T02:17:10.522Z,99883.28
2024-02-21T02:19:39.415Z,99879.75
2024-02-21T02:22:14.366Z,99882.31
2024-02-21T02:24:45.064Z,99870.91
2024-02-21T02:27:13.906Z,99866.50
2024-02-21T02:29:42.603Z,99862.13
2024-02-21T02:32:11.591Z,99857.75
2024-02-21T02:34:40.339Z,99856.03
2024-02-21T02:37:09.216Z,99848.97
2024-02-21T02:39:38.128Z,99844.56
2024-02-21T02:42:08.587Z,99840.28
2024-02-21T02:44:37.426Z,99833.34
2024-02-21T02:47:06.448Z,99829.81
2024-02-21T02:49:35.333Z,99822.00
2024-02-21T02:52:04.056Z,99811.59
2024-02-21T02:54:32.816Z,99808.16
2024-02-21T02:57:01.506Z,99805.59
2024-02-21T02:59:31.750Z,99803.84
2024-02-21T03:02:00.479Z,99792.69
2024-02-21T03:04:29.504Z,99785.75
2024-02-21T03:06:58.305Z,99789.34
2024-02-21T03:09:27.011Z,99767.59
2024-02-21T03:11:58.522Z,99767.59
2024-02-21T03:14:27.455Z,99760.59
2024-02-21T03:16:57.672Z,99761.50
2024-02-21T03:19:27.104Z,99749.31
2024-02-21T03:21:56.008Z,99748.50
2024-02-21T03:24:24.870Z,99727.63
2024-02-21T03:26:53.711Z,99724.22
2024-02-21T03:29:22.382Z,99729.53
2024-02-21T03:31:51.126Z,99721.69
2024-02-21T03:34:21.336Z,99712.19
2024-02-21T03:36:50.152Z,99702.63
2024-02-21T03:39:18.964Z,99688.72
2024-02-21T03:41:48.027Z,99686.19
2024-02-21T03:44:16.706Z,99677.50
2024-02-21T03:46:45.640Z,99671.50
2024-02-21T03:49:14.449Z,99671.56
2024-02-21T03:51:45.025Z,99656.81
2024-02-21T03:54:14.606Z,99646.34
2024-02-21T03:56:43.528Z,99648.97
2024-02-21T03:59:12.404Z,99642.03
2024-02-21T04:01:41.136Z,99637.69
2024-02-21T04:04:10.088Z,99632.41
2024-02-21T04:06:39.170Z,99638.50
2024-02-21T04:09:09.369Z,99632.38
2024-02-21T04:11:38.344Z,99621.06
2024-02-21T04:14:06.986Z,99607.13
2024-02-21T04:16:35.903Z,99596.72
2024-02-21T04:19:04.704Z,99596.75
2024-02-21T04:21:33.859Z,99602.00
2024-02-21T04:24:03.198Z,99588.97
2024-02-21T04:26:33.484Z,99579.38
2024-02-21T04:29:02.760Z,99554.91
2024-02-21T04:31:31.844Z,99555.78
2024-02-21T04:34:00.599Z,99544.53
2024-02-21T04:36:29.404Z,99547.25
2024-02-21T04:38:58.062Z,99556.00
2024-02-21T04:41:27.024Z,99562.25
2024-02-21T04:43:57.327Z,99552.69
2024-02-21T04:46:26.050Z,99540.53
2024-02-21T04:48:54.929Z,99533.53
2024-02-21T04:51:24.410Z,99523.94
2024-02-21T04:53:53.262Z,99505.59
2024-02-21T04:56:22.230Z,99501.28
2024-02-21T04:58:50.955Z,99492.63
2024-02-21T05:01:21.299Z,99486.53
2024-02-21T05:03:50.087Z,99475.22
2024-02-21T05:06:18.933Z,99467.41
2024-02-21T05:08:47.713Z,99453.47
2024-02-21T05:11:16.683Z,99460.34
2024-02-21T05:13:45.615Z,99454.25
2024-02-21T05:16:14.413Z,99436.78
2024-02-21T05:18:45.233Z,99429.78
2024-02-21T05:21:13.983Z,99430.63
2024-02-21T05:23:42.745Z,99414.00
2024-02-21T05:26:12.126Z,99411.34
2024-02-21T05:28:40.955Z,99406.06
2024-02-21T05:31:09.633Z,99408.63
2024-02-21T05:33:38.439Z,99386.69
2024-02-21T05:36:09.453Z,99387.56
2024-02-21T05:38:38.783Z,99387.47
2024-02-21T05:41:11.036Z,99367.31
2024-02-21T05:43:41.091Z,99356.81
2024-02-21T05:46:09.806Z,99348.06
2024-02-21T05:48:39.989Z,99344.53
2024-02-21T05:51:10.546Z,99340.16
2024-02-21T05:53:41.843Z,99327.09
2024-02-21T05:56:13.692Z,99314.88
2024-02-21T05:58:43.058Z,99301.78
2024-02-21T06:01:12.332Z,99299.16
2024-02-21T06:03:41.116Z,99284.28
2024-02-21T06:06:11.350Z,99276.41
2024-02-21T06:08:41.913Z,99279.94
2024-02-21T06:11:10.733Z,99269.47
2024-02-21T06:13:41.818Z,99265.94
2024-02-21T06:16:10.627Z,99253.75
2024-02-21T06:18:39.648Z,99250.22
2024-02-21T06:21:08.525Z,99252.84
2024-02-21T06:23:39.743Z,99252.75
2024-02-21T06:26:08.684Z,99246.69
2024-02-21T06:28:37.420Z,99226.56
2024-02-21T06:31:06.346Z,99221.28
2024-02-21T06:33:35.219Z,99209.09
2024-02-21T06:36:04.010Z,99208.19
2024-02-21T06:38:32.798Z,99197.69
2024-02-21T06:41:04.207Z,99188.06
2024-02-21T06:43:33.125Z,99191.53
2024-02-21T06:46:01.800Z,99176.66
2024-02-21T06:48:30.707Z,99164.44
2024-02-21T06:50:59.402Z,99154.84
2024-02-21T06:53:28.142Z,99148.69
2024-02-21T06:55:56.991Z,99150.47
2024-02-21T06:58:27.310Z,99144.31
2024-02-21T07:00:56.101Z,99142.53
2024-02-21T07:03:25.756Z,99152.03
2024-02-21T07:05:54.755Z,99128.44
2024-02-21T07:08:23.925Z,99131.00
2024-02-21T07:10:52.844Z,99104.81
2024-02-21T07:13:22.762Z,99093.44
2024-02-21T07:15:53.121Z,99085.59
2024-02-21T07:18:22.215Z,99083.75
2024-02-21T07:20:51.007Z,99076.72
2024-02-21T07:23:19.894Z,99075.88
2024-02-21T07:25:48.636Z,99057.47
2024-02-21T07:28:17.977Z,99052.25
2024-02-21T07:30:46.944Z,99044.38
2024-02-21T07:33:17.247Z,99040.84
2024-02-21T07:35:46.491Z,99036.41
2024-02-21T07:38:15.627Z,99018.91
2024-02-21T07:40:45.571Z,99020.53
2024-02-21T07:43:14.350Z,99012.53
2024-02-21T07:45:43.205Z,99001.16
2024-02-21T07:48:12.457Z,98994.97
2024-02-21T07:50:42.742Z,98989.66
2024-02-21T07:53:11.551Z,98994.91
2024-02-21T07:55:40.480Z,98983.44
2024-02-21T07:58:09.248Z,98971.19
2024-02-21T08:00:38.005Z,98974.59
2024-02-21T08:03:07.049Z,98950.09
2024-02-21T08:05:37.402Z,98953.47
2024-02-21T08:08:09.010Z,98948.22
2024-02-21T08:10:37.981Z,98942.03
2024-02-21T08:13:07.495Z,98935.00
2024-02-21T08:15:36.307Z,98931.41
2024-02-21T08:18:05.672Z,98928.72
2024-02-21T08:20:34.671Z,98933.91
2024-02-21T08:23:03.706Z,98916.41
2024-02-21T08:25:33.931Z,98925.19
2024-02-21T08:28:03.532Z,98911.16
2024-02-21T08:30:32.471Z,98909.38
2024-02-21T08:33:01.402Z,98896.28
2024-02-21T08:35:30.900Z,98893.66
2024-02-21T08:37:59.714Z,98894.59
2024-02-21T08:40:28.517Z,98897.13
2024-02-21T08:42:58.841Z,98883.03
2024-02-21T08:45:27.665Z,98869.06
2024-02-21T08:47:56.581Z,98867.28
2024-02-21T08:50:28.708Z,98863.81
2024-02-21T08:52:59.340Z,98855.91
2024-02-21T08:55:28.384Z,98848.09
2024-02-21T08:57:58.503Z,98839.31
2024-02-21T09:00:29.050Z,98843.78
2024-02-21T09:02:58.444Z,98843.03
2024-02-21T09:05:27.530Z,98827.28
2024-02-21T09:07:56.613Z,98826.38
2024-02-21T09:10:25.511Z,98816.66
2024-02-21T09:12:54.239Z,98809.72
2024-02-21T09:15:25.733Z,98804.47
2024-02-21T09:17:54.584Z,98780.88
2024-02-21T09:20:23.409Z,98776.41
2024-02-21T09:22:53.585Z,98770.31
2024-02-21T09:25:22.438Z,98747.59
2024-02-21T09:27:53.060Z,98757.19
2024-02-21T09:30:21.903Z,98746.63
2024-02-21T09:32:52.123Z,98726.56
2024-02-21T09:35:21.056Z,98727.41
2024-02-21T09:37:50.911Z,98731.72
2024-02-21T09:40:19.891Z,98725.56
2024-02-21T09:42:50.437Z,98719.47
2024-02-21T09:45:23.645Z,98703.66
2024-02-21T09:48:21.052Z,98681.00
2024-02-21T09:50:51.732Z,98685.31
2024-02-21T09:53:22.368Z,98679.22
2024-02-21T09:55:51.648Z,98666.03
2024-02-21T09:58:20.465Z,98649.47
2024-02-21T10:00:49.205Z,98645.94
2024-02-21T10:03:19.428Z,98635.44
2024-02-21T10:05:52.409Z,98625.66
2024-02-21T10:08:22.624Z,98615.84
2024-02-21T10:10:54.670Z,98627.22
2024-02-21T10:13:29.179Z,98614.69
2024-02-21T10:16:08.846Z,98606.78
2024-02-21T10:18:39.422Z,98611.84
2024-02-21T10:21:09.185Z,98588.25
2024-02-21T10:23:47.681Z,98590.88
2024-02-21T10:26:17.776Z,98564.56
2024-02-21T10:28:48.527Z,98583.09
2024-02-21T10:31:25.894Z,98573.38
2024-02-21T10:34:00.405Z,98562.81
2024-02-21T10:36:29.386Z,98546.91
2024-02-21T10:38:58.627Z,98545.06
2024-02-21T10:41:29.273Z,98541.41
2024-02-21T10:43:59.105Z,98536.97
2024-02-21T10:46:28.267Z,98527.41
2024-02-21T10:49:08.115Z,98528.91
2024-02-21T10:51:40.219Z,98514.03
2024-02-21T10:54:24.726Z,98503.38
2024-02-21T10:56:54.757Z,98510.94
2024-02-21T10:59:27.787Z,98499.25
2024-02-21T11:01:59.274Z,98495.72
2024-02-21T11:04:32.700Z,98481.47
2024-02-21T11:07:07.850Z,98485.53
2024-02-21T11:09:39.058Z,98481.63
2024-02-21T11:12:10.233Z,98467.53
2024-02-21T11:14:43.166Z,98454.03
2024-02-21T11:17:18.944Z,98459.13
2024-02-21T11:19:49.919Z,98444.91
2024-02-21T11:22:19.938Z,98461.66
2024-02-21T11:24:48.844Z,98439.66
2024-02-21T11:27:19.431Z,98438.72
2024-02-21T11:29:48.822Z,98439.47
2024-02-21T11:32:18.236Z,98421.19
2024-02-21T11:34:58.346Z,98409.84
2024-02-21T11:37:29.243Z,98393.09
2024-02-21T11:39:58.164Z,98385.31
2024-02-21T11:42:28.311Z,98386.72
2024-02-21T11:44:58.466Z,98389.06
2024-02-21T11:47:27.766Z,98382.25
2024-02-21T11:49:57.979Z,98359.38
2024-02-21T11:52:29.566Z,98357.63
2024-02-21T11:55:06.469Z,98353.50
2024-02-21T11:57:36.882Z,98358.00
2024-02-21T12:00:15.876Z,98346.72
2024-02-21T12:02:45.268Z,98352.91
2024-02-21T12:05:16.390Z,98350.19
2024-02-21T12:07:45.967Z,98360.63
2024-02-21T12:10:15.795Z,98335.47
2024-02-21T12:12:44.612Z,98322.59
2024-02-21T12:15:13.832Z,98315.56
2024-02-21T12:17:43.308Z,98306.84
2024-02-21T12:20:13.386Z,98304.06
2024-02-21T12:22:44.796Z,98287.56
2024-02-21T12:25:21.264Z,98284.94
2024-02-21T12:27:50.657Z,98268.34
2024-02-21T12:30:19.667Z,98249.78
2024-02-21T12:32:49.860Z,98222.34
2024-02-21T12:35:19.352Z,98221.03
2024-02-21T12:37:49.762Z,98218.00
2024-02-21T12:40:18.897Z,98210.03
2024-02-21T12:42:48.266Z,98205.53
2024-02-21T12:45:17.880Z,98207.03
2024-02-21T12:47:46.783Z,98193.81
2024-02-21T12:50:16.716Z,98183.19
2024-02-21T12:52:45.649Z,98186.19
2024-02-21T12:55:16.702Z,98181.38
2024-02-21T12:57:45.498Z,98182.25
2024-02-21T13:00:15.410Z,98174.16
2024-02-21T13:02:44.358Z,98167.97
2024-02-21T13:05:13.480Z,98158.28
2024-02-21T13:07:42.783Z,98161.88
2024-02-21T13:10:11.702Z,98158.13
2024-02-21T13:12:42.073Z,98145.81
2024-02-21T13:15:13.492Z,98155.16
2024-02-21T13:17:42.535Z,98155.00
2024-02-21T13:20:12.859Z,98141.66
2024-02-21T13:22:41.785Z,98128.31
2024-02-21T13:25:11.782Z,98118.44
2024-02-21T13:27:42.243Z,98119.94
2024-02-21T13:30:12.182Z,98142.13
2024-02-21T13:32:40.994Z,98127.84
2024-02-21T13:35:13.085Z,98104.63
2024-02-21T13:37:42.184Z,98083.81
2024-02-21T13:40:11.813Z,98077.97
2024-02-21T13:42:42.622Z,98081.22
2024-02-21T13:45:12.190Z,98065.31
2024-02-21T13:47:41.084Z,98079.41
2024-02-21T13:50:12.195Z,98090.78
2024-02-21T13:52:41.147Z,98077.53
2024-02-21T13:55:11.017Z,98080.72
2024-02-21T13:57:40.062Z,98081.13
2024-02-21T14:00:12.241Z,98079.03
2024-02-21T14:02:41.214Z,98070.84
2024-02-21T14:05:10.945Z,98068.28
2024-02-21T14:07:40.384Z,98059.38
2024-02-21T14:10:11.209Z,98047.47
2024-02-21T14:12:41.530Z,98040.00
2024-02-21T14:15:12.463Z,98033.47
2024-02-21T14:17:41.634Z,98022.50
2024-02-21T14:22:40.163Z,98013.28
2024-02-21T14:25:10.034Z,98012.63
2024-02-21T14:27:38.778Z,98013.75
2024-02-21T14:30:11.738Z,97993.78
2024-02-21T14:32:46.189Z,98006.50
2024-02-21T14:35:16.957Z,98002.00
2024-02-21T14:37:47.062Z,98015.56
2024-02-21T14:40:16.066Z,98010.75
2024-02-21T14:42:44.870Z,97999.78
2024-02-21T14:45:15.298Z,98011.66
2024-02-21T14:47:45.675Z,98011.34
2024-02-21T14:50:14.507Z,98003.31
2024-02-21T14:52:45.332Z,98000.34
2024-02-21T14:55:16.743Z,98006.19
2024-02-21T14:57:45.981Z,97991.97
2024-02-21T15:00:15.847Z,98000.72
2024-02-21T15:02:46.264Z,97992.69
2024-02-21T15:05:15.616Z,97995.00
2024-02-21T15:07:44.540Z,97973.91
2024-02-21T15:10:13.850Z,97982.72
2024-02-21T15:12:42.748Z,97976.03
2024-02-21T15:15:12.060Z,97986.56
2024-02-21T15:17:40.879Z,97999.03
2024-02-21T15:20:12.268Z,98014.84
2024-02-21T15:22:41.146Z,98014.84
2024-02-21T15:25:16.256Z,98024.19
2024-02-21T15:27:46.278Z,98033.78
2024-02-21T15:30:16.697Z,98043.34
2024-02-21T15:32:46.270Z,98053.19
2024-02-21T15:35:17.017Z,98043.84
2024-02-21T15:37:46.143Z,98045.97
2024-02-21T15:40:16.163Z,98050.50
2024-02-21T15:42:45.004Z,98041.03
2024-02-21T15:45:13.911Z,98036.59
2024-02-21T15:47:42.676Z,98028.69
2024-02-21T15:50:12.541Z,98030.50
2024-02-21T15:52:42.876Z,98016.34
2024-02-21T15:55:13.751Z,98013.84
2024-02-21T15:57:42.569Z,98018.59
2024-02-21T16:00:14.290Z,98021.47
2024-02-21T16:02:43.537Z,98012.22
2024-02-21T16:05:13.550Z,98017.94
2024-02-21T16:07:44.000Z,98015.88
2024-02-21T16:10:12.910Z,98026.88
2024-02-21T16:12:42.682Z,98020.13
2024-02-21T16:15:13.389Z,98017.00
2024-02-21T16:17:42.321Z,98007.63
2024-02-21T16:20:12.117Z,98007.97
2024-02-21T16:22:41.181Z,98002.69
2024-02-21T16:25:11.807Z,98012.38
2024-02-21T16:27:42.070Z,98015.78
2024-02-21T16:30:11.506Z,98038.06
2024-02-21T16:32:44.245Z,98031.97
2024-02-21T16:35:13.558Z,98032.81
2024-02-21T16:37:42.645Z,98036.28
2024-02-21T16:40:14.358Z,98034.25
2024-02-21T16:42:43.221Z,98034.03
2024-02-21T16:45:12.205Z,98036.69
2024-02-21T16:47:41.844Z,98030.91
2024-02-21T16:50:11.799Z,98022.59
2024-02-21T16:52:41.368Z,98041.34
2024-02-21T16:55:15.838Z,98030.41
2024-02-21T16:57:46.203Z,98034.31
2024-02-21T17:00:16.266Z,98034.69
2024-02-21T17:02:52.510Z,98045.63
2024-02-21T17:05:28.055Z,98042.25
2024-02-21T17:07:57.441Z,98054.81
2024-02-21T17:10:27.867Z,98059.53
2024-02-21T17:12:56.749Z,98055.66
2024-02-21T17:15:25.603Z,98052.31
2024-02-21T17:17:54.548Z,98062.09
2024-02-21T17:20:25.087Z,98064.94
2024-02-21T17:22:54.243Z,98073.97
2024-02-21T17:25:23.232Z,98076.28
2024-02-21T17:27:53.627Z,98070.31
2024-02-21T17:30:26.100Z,98074.00
2024-02-21T17:32:56.465Z,98076.72
2024-02-21T17:35:26.001Z,98078.41
2024-02-21T17:37:55.590Z,98075.75
2024-02-21T17:40:26.456Z,98070.84
2024-02-21T17:42:57.170Z,98076.09
2024-02-21T17:45:26.154Z,98064.94
2024-02-21T17:47:55.253Z,98056.50
2024-02-21T17:50:24.341Z,98055.88
2024-02-21T17:52:53.487Z,98059.56
2024-02-21T17:55:23.069Z,98053.66
2024-02-21T17:57:52.219Z,98054.38
2024-02-21T18:00:22.806Z,98052.47
2024-02-21T18:02:51.606Z,98068.94
2024-02-21T18:05:21.356Z,98079.03
2024-02-21T18:07:50.326Z,98079.13
2024-02-21T18:10:19.707Z,98064.50
2024-02-21T18:12:49.611Z,98050.75
2024-02-21T18:15:18.620Z,98054.50
2024-02-21T18:17:49.900Z,98067.75
2024-02-21T18:20:19.010Z,98081.00
2024-02-21T18:22:47.855Z,98083.31
2024-02-21T18:25:17.891Z,98073.44
2024-02-21T18:27:48.127Z,98090.03
2024-02-21T18:30:17.443Z,98081.97
2024-02-21T18:32:51.369Z,98084.59
2024-02-21T18:35:20.505Z,98086.06
2024-02-21T18:37:49.985Z,98097.22
2024-02-21T18:40:19.058Z,98095.13
2024-02-21T18:42:48.562Z,98083.78
2024-02-21T18:45:17.647Z,98078.63
2024-02-21T18:47:47.927Z,98081.47
2024-02-21T18:50:17.205Z,98085.34
2024-02-21T18:52:46.289Z,98086.28
2024-02-21T18:55:17.042Z,98085.34
2024-02-21T18:57:46.041Z,98095.84
2024-02-21T19:00:18.344Z,98093.34
2024-02-21T19:02:48.982Z,98083.84
2024-02-21T19:05:18.902Z,98084.25
2024-02-21T19:07:47.789Z,98080.78
2024-02-21T19:10:17.131Z,98079.00
2024-02-21T19:12:46.108Z,98071.94
2024-02-21T19:15:15.082Z,98078.38
2024-02-21T19:17:44.257Z,98081.84
2024-02-21T19:20:15.133Z,98075.84
2024-02-21T19:22:47.406Z,98079.50
2024-02-21T19:25:19.081Z,98080.72
2024-02-21T19:27:48.384Z,98077.38
2024-02-21T19:30:17.848Z,98072.34
2024-02-21T19:32:46.938Z,98084.50
2024-02-21T19:35:17.552Z,98073.34
2024-02-21T19:37:46.603Z,98071.97
2024-02-21T19:40:16.983Z,98064.09
2024-02-21T19:42:45.932Z,98069.25
2024-02-21T19:45:16.183Z,98060.34
2024-02-21T19:47:46.645Z,98048.25
2024-02-21T19:50:22.598Z,98054.41
2024-02-21T19:52:52.063Z,98043.19
2024-02-21T19:55:21.046Z,98040.66
2024-02-21T19:57:50.252Z,98050.22
2024-02-21T20:00:21.128Z,98042.34
2024-02-21T20:02:53.980Z,98041.63
2024-02-21T20:05:24.610Z,98034.88
2024-02-21T20:07:53.840Z,98050.00
2024-02-21T20:10:23.065Z,98045.03
2024-02-21T20:12:52.153Z,98048.69
2024-02-21T20:15:21.079Z,98040.28
2024-02-21T20:17:49.907Z,98043.84
2024-02-21T20:20:19.279Z,98050.94
2024-02-21T20:22:49.675Z,98055.56
2024-02-21T20:25:18.812Z,98044.50
2024-02-21T20:27:48.339Z,98045.56
2024-02-21T20:30:18.179Z,98047.34
2024-02-21T20:32:51.980Z,98051.66
2024-02-21T20:35:22.060Z,98053.44
2024-02-21T20:37:52.554Z,98045.63
2024-02-21T20:40:21.379Z,98045.63
2024-02-21T20:42:50.180Z,98041.88
2024-02-21T20:45:19.198Z,98034.97
2024-02-21T20:47:48.283Z,98044.63
2024-02-21T20:50:17.827Z,98038.72
2024-02-21T20:52:46.636Z,98034.41
2024-02-21T20:55:17.281Z,98033.84
2024-02-21T20:57:46.033Z,98030.50
2024-02-21T21:00:15.893Z,98035.84
2024-02-21T21:02:45.770Z,98028.97
2024-02-21T21:05:14.822Z,98028.97
2024-02-21T21:07:44.007Z,98035.94
2024-02-21T21:10:14.030Z,98037.72
2024-02-21T21:12:44.362Z,98035.94
2024-02-21T21:15:13.887Z,98038.63
2024-02-21T21:17:42.791Z,98023.75
2024-02-21T21:20:13.713Z,98015.88
2024-02-21T21:22:43.078Z,98012.41
2024-02-21T21:25:12.147Z,98014.50
2024-02-21T21:27:42.041Z,98012.16
2024-02-21T21:30:13.965Z,98011.50
2024-02-21T21:32:42.872Z,98012.53
2024-02-21T21:35:12.364Z,98005.78
2024-02-21T21:37:42.728Z,98003.28
2024-02-21T21:40:14.292Z,98006.22
2024-02-21T21:42:43.293Z,97999.25
2024-02-21T21:45:14.714Z,97997.56
2024-02-21T21:47:44.524Z,97997.00
2024-02-21T21:50:14.175Z,98004.34
2024-02-21T21:52:44.890Z,98002.28
2024-02-21T21:55:13.919Z,98009.59
2024-02-21T21:57:42.786Z,98020.47
2024-02-21T22:00:14.578Z,98027.91
2024-02-21T22:02:48.485Z,98031.56
2024-02-21T22:05:18.140Z,98028.13
2024-02-21T22:07:47.895Z,98022.13
2024-02-21T22:10:17.075Z,98025.13
2024-02-21T22:12:45.821Z,98032.03
2024-02-21T22:15:17.301Z,98028.94
2024-02-21T22:17:46.154Z,98022.28
2024-02-21T22:20:15.353Z,98022.50
2024-02-21T22:22:44.343Z,98019.03
2024-02-21T22:25:12.984Z,98015.72
2024-02-21T22:27:41.834Z,98012.69
2024-02-21T22:30:11.529Z,98002.38
2024-02-21T22:32:41.991Z,97990.22
2024-02-21T22:35:12.313Z,97990.22
2024-02-21T22:37:41.297Z,97988.75
2024-02-21T22:40:11.261Z,97995.09
2024-02-21T22:42:40.175Z,97983.88
2024-02-21T22:45:10.115Z,97982.56
2024-02-21T22:47:41.885Z,97977.66
2024-02-21T22:50:11.819Z,97984.75
2024-02-21T22:52:40.773Z,97991.84
2024-02-21T22:55:10.745Z,97986.63
2024-02-21T22:57:41.849Z,97971.28
2024-02-21T23:00:17.074Z,97975.03
2024-02-21T23:02:47.585Z,97966.22
2024-02-21T23:05:18.154Z,97975.75
2024-02-21T23:07:51.198Z,97975.75
2024-02-21T23:10:20.127Z,97971.63
2024-02-21T23:12:48.771Z,97965.91
2024-02-21T23:15:17.705Z,97964.13
2024-02-21T23:17:47.934Z,97961.50
2024-02-21T23:20:16.922Z,97959.84
2024-02-21T23:22:45.703Z,97968.44
2024-02-21T23:25:15.050Z,97960.78
2024-02-21T23:27:45.335Z,97955.72
2024-02-21T23:30:14.631Z,97944.19
2024-02-21T23:32:43.510Z,97938.63
2024-02-21T23:35:13.914Z,97935.25
2024-02-21T23:37:42.733Z,97938.81
2024-02-21T23:40:12.728Z,97939.31
2024-02-21T23:42:41.603Z,97931.38
2024-02-21T23:45:12.006Z,97920.06
2024-02-21T23:47:40.985Z,97922.09
2024-02-21T23:50:10.741Z,97902.69
2024-02-21T23:52:41.137Z,97902.00
2024-02-21T23:55:10.942Z,97884.03
2024-02-21T23:57:40.146Z,97886.09
